Time;durP1;ratioP1;P1;durP2;ratioP2;P2;SDS_P1;SDS_P2;PMS_P1;PMS_P2;Temp;Humidity;BMP_temperature;BMP_pressure;BME280_temperature;BME280_humidity;BME280_pressure;Samples;Min_cycle;Max_cycle;Signal;HPM_P1;HPM_P2
2023/08/27 00:01:13;;;;;;;10.13;6.20;;;;;;;;;;5029827;28;20029;-72
2023/08/27 00:03:39;;;;;;;10.07;6.30;;;;;;;;;;5031421;28;20104;-73
2023/08/27 00:06:05;;;;;;;10.57;5.78;;;;;;;;;;5033531;28;20026;-73
2023/08/27 00:08:31;;;;;;;13.38;6.03;;;;;;;;;;5034095;28;20030;-73
2023/08/27 00:10:58;;;;;;;10.20;6.07;;;;;;;;;;5035252;28;20025;-74
2023/08/27 00:13:24;;;;;;;9.80;5.68;;;;;;;;;;5034613;28;20029;-74
2023/08/27 00:15:50;;;;;;;11.63;6.60;;;;;;;;;;5034932;28;20437;-75
2023/08/27 00:18:16;;;;;;;10.95;6.22;;;;;;;;;;5034931;28;20033;-75
2023/08/27 00:20:42;;;;;;;9.20;6.38;;;;;;;;;;5033925;28;20163;-73
2023/08/27 00:23:10;;;;;;;8.95;5.85;;;;;;;;;;5032467;28;20475;-74
2023/08/27 00:25:36;;;;;;;9.88;5.78;;;;;;;;;;5031913;28;20160;-73
2023/08/27 00:28:02;;;;;;;11.32;5.75;;;;;;;;;;5031885;28;20068;-73
2023/08/27 00:30:28;;;;;;;10.10;5.70;;;;;;;;;;5031840;28;20025;-73
2023/08/27 00:32:54;;;;;;;14.85;5.78;;;;;;;;;;5031691;28;20130;-74
2023/08/27 00:35:20;;;;;;;10.68;6.10;;;;;;;;;;5031756;28;20036;-73
2023/08/27 00:37:46;;;;;;;7.57;5.50;;;;;;;;;;5032034;28;20028;-73
2023/08/27 00:40:12;;;;;;;10.52;5.60;;;;;;;;;;5031722;28;20025;-73
2023/08/27 00:42:38;;;;;;;10.10;5.88;;;;;;;;;;5031817;28;20025;-76
2023/08/27 00:45:04;;;;;;;9.38;5.38;;;;;;;;;;5031912;28;20025;-75
2023/08/27 00:47:30;;;;;;;12.95;6.07;;;;;;;;;;5032264;28;20029;-74
2023/08/27 00:49:57;;;;;;;10.45;6.28;;;;;;;;;;5032501;28;20026;-74
2023/08/27 00:52:23;;;;;;;10.05;5.47;;;;;;;;;;5031764;28;20025;-74
2023/08/27 00:54:49;;;;;;;9.32;5.53;;;;;;;;;;5033246;28;20096;-73
2023/08/27 00:57:15;;;;;;;9.60;5.80;;;;;;;;;;5033361;28;20499;-74
2023/08/27 00:59:41;;;;;;;10.25;5.78;;;;;;;;;;5034016;28;20304;-74
2023/08/27 01:02:07;;;;;;;11.85;5.43;;;;;;;;;;5031470;28;20036;-74
2023/08/27 01:04:34;;;;;;;7.88;5.07;;;;;;;;;;5031456;28;20375;-74
2023/08/27 01:07:03;;;;;;;10.18;6.15;;;;;;;;;;5031611;28;20123;-74
2023/08/27 01:09:44;;;;;;;8.10;5.53;;;;;;;;;;5031484;28;20057;-74
2023/08/27 01:12:43;;;;;;;11.05;5.43;;;;;;;;;;5031107;28;20025;-74
2023/08/27 01:15:09;;;;;;;11.20;5.70;;;;;;;;;;5031366;28;20497;-74
2023/08/27 01:17:36;;;;;;;9.10;5.70;;;;;;;;;;5033283;28;20033;-74
2023/08/27 01:20:05;;;;;;;8.98;5.78;;;;;;;;;;5036222;28;20025;-74
2023/08/27 01:22:31;;;;;;;12.68;5.82;;;;;;;;;;5036994;28;20028;-74
2023/08/27 01:24:57;;;;;;;8.45;5.25;;;;;;;;;;5037895;28;20029;-74
2023/08/27 01:27:30;;;;;;;10.75;5.90;;;;;;;;;;5037619;28;20030;-74
2023/08/27 01:30:32;;;;;;;9.85;5.82;;;;;;;;;;5036141;28;20027;-73
2023/08/27 01:33:05;;;;;;;11.50;6.18;;;;;;;;;;5031930;28;20105;-74
2023/08/27 01:35:32;;;;;;;8.88;5.63;;;;;;;;;;5034833;28;20407;-73
2023/08/27 01:37:59;;;;;;;13.38;5.70;;;;;;;;;;5035336;28;20426;-73
2023/08/27 01:40:29;;;;;;;13.75;6.22;;;;;;;;;;5035098;28;20028;-74
2023/08/27 01:42:55;;;;;;;11.13;5.82;;;;;;;;;;5035766;28;20442;-75
2023/08/27 01:45:21;;;;;;;12.43;6.55;;;;;;;;;;5036885;28;20052;-74
2023/08/27 01:47:47;;;;;;;13.63;6.25;;;;;;;;;;5035182;28;20026;-73
2023/08/27 01:50:13;;;;;;;11.48;6.65;;;;;;;;;;5035342;28;20084;-74
2023/08/27 01:52:39;;;;;;;11.57;6.47;;;;;;;;;;5035487;28;20104;-74
2023/08/27 01:55:07;;;;;;;14.07;6.15;;;;;;;;;;5035424;28;20045;-75
2023/08/27 01:57:33;;;;;;;10.45;5.80;;;;;;;;;;5035428;28;20403;-74
2023/08/27 01:59:59;;;;;;;16.13;6.47;;;;;;;;;;5035267;28;20017;-73
2023/08/27 02:02:25;;;;;;;10.95;6.03;;;;;;;;;;5034259;28;20179;-73
2023/08/27 02:04:51;;;;;;;10.18;5.85;;;;;;;;;;5034438;28;20358;-74
2023/08/27 02:07:17;;;;;;;10.55;5.22;;;;;;;;;;5034407;28;20025;-72
2023/08/27 02:09:43;;;;;;;11.88;5.43;;;;;;;;;;5034384;28;20372;-73
2023/08/27 02:12:09;;;;;;;14.85;5.63;;;;;;;;;;5034023;28;20536;-74
2023/08/27 02:14:36;;;;;;;11.05;6.45;;;;;;;;;;5034197;28;20126;-74
2023/08/27 02:17:02;;;;;;;9.75;5.60;;;;;;;;;;5034189;28;20104;-73
2023/08/27 02:19:29;;;;;;;9.88;6.00;;;;;;;;;;5034221;28;20541;-73
2023/08/27 02:21:55;;;;;;;10.02;6.15;;;;;;;;;;5033949;28;20038;-74
2023/08/27 02:24:21;;;;;;;8.15;5.95;;;;;;;;;;5034082;28;20333;-75
2023/08/27 02:26:47;;;;;;;12.07;5.75;;;;;;;;;;5034063;28;20120;-74
2023/08/27 02:29:13;;;;;;;7.63;5.18;;;;;;;;;;5035012;28;20031;-76
2023/08/27 02:31:39;;;;;;;10.70;5.20;;;;;;;;;;5035049;28;20040;-75
2023/08/27 02:34:05;;;;;;;10.80;5.97;;;;;;;;;;5035567;28;20025;-75
2023/08/27 02:36:31;;;;;;;10.43;5.78;;;;;;;;;;5037006;28;20025;-74
2023/08/27 02:38:57;;;;;;;11.07;6.03;;;;;;;;;;5040563;28;20491;-74
2023/08/27 02:41:23;;;;;;;9.05;5.40;;;;;;;;;;5041684;28;20032;-74
2023/08/27 02:43:49;;;;;;;10.75;6.22;;;;;;;;;;5040026;28;20048;-73
2023/08/27 02:46:15;;;;;;;12.07;5.80;;;;;;;;;;5035011;28;20475;-74
2023/08/27 02:48:41;;;;;;;11.45;6.40;;;;;;;;;;5034589;28;20025;-73
2023/08/27 02:51:07;;;;;;;14.93;6.18;;;;;;;;;;5042682;28;20030;-74
2023/08/27 02:53:33;;;;;;;10.18;5.90;;;;;;;;;;5042712;28;20048;-74
2023/08/27 02:55:59;;;;;;;13.10;6.22;;;;;;;;;;5043069;28;20075;-74
2023/08/27 02:58:25;;;;;;;9.23;5.35;;;;;;;;;;5040864;28;20029;-76
2023/08/27 03:00:51;;;;;;;12.77;5.28;;;;;;;;;;5036317;28;20037;-75
2023/08/27 03:03:17;;;;;;;9.68;5.03;;;;;;;;;;5034110;28;20075;-74
2023/08/27 03:05:43;;;;;;;11.77;5.00;;;;;;;;;;5034087;28;20120;-76
2023/08/27 03:08:09;;;;;;;8.93;4.47;;;;;;;;;;5034127;28;20108;-75
2023/08/27 03:10:35;;;;;;;8.65;4.85;;;;;;;;;;5033571;28;20038;-76
2023/08/27 03:13:01;;;;;;;10.50;5.10;;;;;;;;;;5034708;28;20032;-75
2023/08/27 03:15:27;;;;;;;12.07;5.18;;;;;;;;;;5033211;28;20040;-75
2023/08/27 03:17:53;;;;;;;8.63;4.90;;;;;;;;;;5033060;28;20026;-75
2023/08/27 03:20:19;;;;;;;11.13;4.93;;;;;;;;;;5033087;28;20045;-75
2023/08/27 03:22:45;;;;;;;8.00;4.50;;;;;;;;;;5033366;28;20018;-74
2023/08/27 03:25:12;;;;;;;9.82;4.97;;;;;;;;;;5035026;28;20028;-76
2023/08/27 03:27:38;;;;;;;13.30;5.53;;;;;;;;;;5035176;28;20030;-74
2023/08/27 03:30:04;;;;;;;9.38;5.30;;;;;;;;;;5034117;28;20025;-74
2023/08/27 03:32:30;;;;;;;11.98;5.13;;;;;;;;;;5032640;28;20549;-73
2023/08/27 03:34:56;;;;;;;10.68;4.78;;;;;;;;;;5032739;28;20049;-75
2023/08/27 03:37:22;;;;;;;12.27;5.38;;;;;;;;;;5032720;28;20455;-75
2023/08/27 03:39:48;;;;;;;10.30;5.10;;;;;;;;;;5032666;28;20029;-75
2023/08/27 03:42:14;;;;;;;8.75;4.93;;;;;;;;;;5032279;28;20022;-75
2023/08/27 03:44:40;;;;;;;10.25;5.70;;;;;;;;;;5032585;28;20079;-74
2023/08/27 03:47:06;;;;;;;9.25;4.82;;;;;;;;;;5033741;28;20122;-75
2023/08/27 03:49:32;;;;;;;9.45;4.88;;;;;;;;;;5033042;28;20028;-75
2023/08/27 03:51:58;;;;;;;8.38;5.13;;;;;;;;;;5032151;28;20017;-74
2023/08/27 03:54:26;;;;;;;13.05;5.85;;;;;;;;;;5032218;28;20025;-74
2023/08/27 03:56:52;;;;;;;9.43;4.88;;;;;;;;;;5032260;28;20018;-75
2023/08/27 03:59:18;;;;;;;9.98;5.30;;;;;;;;;;5032623;28;20028;-74
2023/08/27 04:01:44;;;;;;;10.75;5.53;;;;;;;;;;5032020;28;20025;-75
2023/08/27 04:04:10;;;;;;;12.73;5.60;;;;;;;;;;5032115;28;20369;-74
2023/08/27 04:06:36;;;;;;;13.60;5.47;;;;;;;;;;5032345;28;20026;-75
2023/08/27 04:09:04;;;;;;;10.80;5.15;;;;;;;;;;5032077;28;20384;-75
2023/08/27 04:11:30;;;;;;;14.27;7.72;;;;;;;;;;5031935;28;20487;-75
2023/08/27 04:13:56;;;;;;;12.85;5.88;;;;;;;;;;5031987;28;20109;-76
2023/08/27 04:16:22;;;;;;;9.05;4.93;;;;;;;;;;5032108;28;20031;-76
2023/08/27 04:18:48;;;;;;;11.77;5.10;;;;;;;;;;5033606;28;20025;-75
2023/08/27 04:21:14;;;;;;;13.70;5.63;;;;;;;;;;5032687;28;20456;-75
2023/08/27 04:23:40;;;;;;;9.52;5.72;;;;;;;;;;5032001;28;20025;-75
2023/08/27 04:26:06;;;;;;;9.07;5.60;;;;;;;;;;5033952;28;20120;-76
2023/08/27 04:28:32;;;;;;;8.95;5.38;;;;;;;;;;5033740;28;20029;-76
2023/08/27 04:30:58;;;;;;;15.25;6.20;;;;;;;;;;5031467;28;20032;-74
2023/08/27 04:33:24;;;;;;;14.93;6.22;;;;;;;;;;5031273;28;20029;-75
2023/08/27 04:35:52;;;;;;;12.40;6.22;;;;;;;;;;5031888;28;20022;-75
2023/08/27 04:38:18;;;;;;;11.18;5.45;;;;;;;;;;5031650;28;20014;-74
2023/08/27 04:40:44;;;;;;;9.73;5.47;;;;;;;;;;5031852;28;20037;-75
2023/08/27 04:43:10;;;;;;;10.43;5.43;;;;;;;;;;5031560;28;20037;-75
2023/08/27 04:45:36;;;;;;;10.95;5.68;;;;;;;;;;5032717;28;20033;-76
2023/08/27 04:48:03;;;;;;;9.30;5.05;;;;;;;;;;5032561;28;20036;-76
2023/08/27 04:50:29;;;;;;;8.93;5.20;;;;;;;;;;5031924;28;20506;-76
2023/08/27 04:52:55;;;;;;;8.68;5.18;;;;;;;;;;5031395;28;20025;-76
2023/08/27 04:55:21;;;;;;;11.75;5.32;;;;;;;;;;5035568;28;20081;-76
2023/08/27 04:57:47;;;;;;;9.27;5.03;;;;;;;;;;5037724;28;20045;-75
2023/08/27 05:00:16;;;;;;;10.40;5.05;;;;;;;;;;5037481;28;20022;-76
2023/08/27 05:02:42;;;;;;;11.10;4.82;;;;;;;;;;5039822;28;20025;-77
2023/08/27 05:05:08;;;;;;;8.60;4.80;;;;;;;;;;5043343;28;20495;-77
2023/08/27 05:07:35;;;;;;;11.93;4.15;;;;;;;;;;5040314;28;20113;-76
2023/08/27 05:10:01;;;;;;;7.68;4.72;;;;;;;;;;5035564;28;20031;-76
2023/08/27 05:12:27;;;;;;;10.45;5.03;;;;;;;;;;5035775;28;20021;-77
2023/08/27 05:14:53;;;;;;;10.43;4.95;;;;;;;;;;5034095;28;20024;-76
2023/08/27 05:17:19;;;;;;;12.10;7.32;;;;;;;;;;5034712;28;20033;-75
2023/08/27 05:19:45;;;;;;;12.45;5.72;;;;;;;;;;5034154;28;20052;-76
2023/08/27 05:22:11;;;;;;;10.07;4.82;;;;;;;;;;5035884;28;20032;-75
2023/08/27 05:24:37;;;;;;;9.43;5.07;;;;;;;;;;5035030;28;20025;-76
2023/08/27 05:27:03;;;;;;;9.57;5.53;;;;;;;;;;5035141;28;20104;-76
2023/08/27 05:29:30;;;;;;;12.65;5.10;;;;;;;;;;5036096;28;20025;-76
2023/08/27 05:31:56;;;;;;;10.73;5.72;;;;;;;;;;5036810;28;20033;-75
2023/08/27 05:34:23;;;;;;;15.00;6.28;;;;;;;;;;5037318;28;20105;-75
2023/08/27 05:36:49;;;;;;;11.15;5.28;;;;;;;;;;5035838;28;20463;-74
2023/08/27 05:39:15;;;;;;;14.90;5.68;;;;;;;;;;5035057;28;20052;-75
2023/08/27 05:41:41;;;;;;;9.98;5.43;;;;;;;;;;5038163;28;20481;-74
2023/08/27 05:44:07;;;;;;;9.63;5.15;;;;;;;;;;5037832;28;20022;-74
2023/08/27 05:46:33;;;;;;;17.45;5.70;;;;;;;;;;5037390;28;20141;-74
2023/08/27 05:49:00;;;;;;;11.43;5.78;;;;;;;;;;5034237;28;20033;-74
2023/08/27 05:51:26;;;;;;;8.80;5.07;;;;;;;;;;5034181;28;20029;-75
2023/08/27 05:53:52;;;;;;;11.13;5.05;;;;;;;;;;5026254;28;20078;-74
2023/08/27 05:56:18;;;;;;;10.63;5.05;;;;;;;;;;5034561;28;20447;-74
2023/08/27 05:58:44;;;;;;;9.70;5.90;;;;;;;;;;5034226;28;20025;-73
2023/08/27 06:01:11;;;;;;;13.55;5.20;;;;;;;;;;5034254;28;20032;-74
2023/08/27 06:03:37;;;;;;;11.00;5.40;;;;;;;;;;5033891;28;20021;-73
2023/08/27 06:06:03;;;;;;;11.75;5.28;;;;;;;;;;5032848;28;20409;-79
2023/08/27 06:08:29;;;;;;;10.48;5.15;;;;;;;;;;5032357;28;20387;-73
2023/08/27 06:10:55;;;;;;;9.85;5.32;;;;;;;;;;5035933;28;20036;-77
2023/08/27 06:13:21;;;;;;;7.10;4.47;;;;;;;;;;5033666;28;21282;-75
2023/08/27 06:15:47;;;;;;;8.32;4.57;;;;;;;;;;5034149;28;20024;-75
2023/08/27 06:18:13;;;;;;;6.25;4.53;;;;;;;;;;5034226;28;20123;-75
2023/08/27 06:20:39;;;;;;;8.23;4.75;;;;;;;;;;5034636;28;20428;-74
2023/08/27 06:23:05;;;;;;;9.75;5.15;;;;;;;;;;5033918;28;20025;-74
2023/08/27 06:25:34;;;;;;;10.57;4.95;;;;;;;;;;5037636;28;20029;-77
2023/08/27 06:28:02;;;;;;;7.97;4.85;;;;;;;;;;5034183;28;20050;-74
2023/08/27 06:30:28;;;;;;;7.27;4.47;;;;;;;;;;5034319;28;20422;-72
2023/08/27 06:32:54;;;;;;;10.48;5.53;;;;;;;;;;5034077;28;20052;-74
2023/08/27 06:35:20;;;;;;;10.00;4.85;;;;;;;;;;5033925;28;20412;-73
2023/08/27 06:37:46;;;;;;;10.77;5.00;;;;;;;;;;5034064;28;20040;-73
2023/08/27 06:40:13;;;;;;;10.88;5.47;;;;;;;;;;5033990;28;20021;-72
2023/08/27 06:42:39;;;;;;;9.02;6.03;;;;;;;;;;5033720;28;20028;-75
2023/08/27 06:45:06;;;;;;;10.65;5.85;;;;;;;;;;5033540;28;20223;-73
2023/08/27 06:47:32;;;;;;;10.75;5.43;;;;;;;;;;5033531;28;20483;-72
2023/08/27 06:49:58;;;;;;;7.53;5.25;;;;;;;;;;5031453;28;20083;-75
2023/08/27 06:52:24;;;;;;;9.32;5.18;;;;;;;;;;5032237;28;20075;-75
2023/08/27 06:54:50;;;;;;;11.82;5.57;;;;;;;;;;5032594;28;20025;-74
2023/08/27 06:57:16;;;;;;;10.15;5.60;;;;;;;;;;5031939;28;20039;-73
2023/08/27 06:59:42;;;;;;;9.40;5.60;;;;;;;;;;5031047;28;20076;-72
2023/08/27 07:02:09;;;;;;;10.50;5.30;;;;;;;;;;5031381;28;20033;-72
2023/08/27 07:04:35;;;;;;;8.43;5.10;;;;;;;;;;5032074;28;20037;-79
2023/08/27 07:07:01;;;;;;;8.50;5.65;;;;;;;;;;5035038;28;20035;-76
2023/08/27 07:09:27;;;;;;;11.10;6.20;;;;;;;;;;5036333;28;20093;-75
2023/08/27 07:11:53;;;;;;;12.75;6.07;;;;;;;;;;5037013;28;20021;-75
2023/08/27 07:14:19;;;;;;;10.77;5.55;;;;;;;;;;5038799;28;20096;-75
2023/08/27 07:16:45;;;;;;;10.93;5.72;;;;;;;;;;5037972;28;20081;-76
2023/08/27 07:19:11;;;;;;;11.43;5.75;;;;;;;;;;5038410;28;20021;-75
2023/08/27 07:21:37;;;;;;;9.25;5.38;;;;;;;;;;5034393;28;20471;-78
2023/08/27 07:24:03;;;;;;;14.35;5.18;;;;;;;;;;5033866;28;20092;-74
2023/08/27 07:26:30;;;;;;;10.23;5.20;;;;;;;;;;5032540;28;20035;-75
2023/08/27 07:28:56;;;;;;;9.55;5.43;;;;;;;;;;5031730;28;20523;-74
2023/08/27 07:31:22;;;;;;;12.60;5.07;;;;;;;;;;5031666;28;20021;-73
2023/08/27 07:33:48;;;;;;;10.52;5.28;;;;;;;;;;5031048;28;20018;-74
2023/08/27 07:36:14;;;;;;;9.05;5.10;;;;;;;;;;5031588;28;20104;-75
2023/08/27 07:38:41;;;;;;;11.57;5.50;;;;;;;;;;5031950;28;20163;-74
2023/08/27 07:41:11;;;;;;;14.25;5.70;;;;;;;;;;5031893;28;20033;-75
2023/08/27 07:43:37;;;;;;;9.73;4.20;;;;;;;;;;5032194;28;20033;-76
2023/08/27 07:46:03;;;;;;;8.48;4.55;;;;;;;;;;5031901;28;20029;-75
2023/08/27 07:48:31;;;;;;;9.95;4.50;;;;;;;;;;5031224;28;20029;-75
2023/08/27 07:50:57;;;;;;;9.35;4.50;;;;;;;;;;5050838;28;20056;-75
2023/08/27 07:53:23;;;;;;;8.10;4.78;;;;;;;;;;5051562;28;20021;-75
2023/08/27 07:55:50;;;;;;;10.00;4.28;;;;;;;;;;5052363;28;20024;-76
2023/08/27 07:58:16;;;;;;;13.82;4.50;;;;;;;;;;5055867;28;20040;-76
2023/08/27 08:00:42;;;;;;;9.88;4.65;;;;;;;;;;5057451;28;20354;-76
2023/08/27 08:03:08;;;;;;;8.57;4.40;;;;;;;;;;5055266;28;20020;-76
2023/08/27 08:05:34;;;;;;;12.02;3.80;;;;;;;;;;5052084;28;20485;-75
2023/08/27 08:08:00;;;;;;;12.55;4.50;;;;;;;;;;5053277;28;20104;-77
2023/08/27 08:10:26;;;;;;;9.10;4.32;;;;;;;;;;5053024;28;20036;-75
2023/08/27 08:12:53;;;;;;;9.30;4.28;;;;;;;;;;5052742;28;20047;-75
2023/08/27 08:15:19;;;;;;;20.30;5.38;;;;;;;;;;5051029;28;20509;-76
2023/08/27 08:17:45;;;;;;;7.80;4.40;;;;;;;;;;5050711;28;20029;-76
2023/08/27 08:20:14;;;;;;;8.27;4.10;;;;;;;;;;5051202;28;20028;-75
2023/08/27 08:22:41;;;;;;;13.05;5.20;;;;;;;;;;5050506;28;20103;-78
2023/08/27 08:25:07;;;;;;;10.25;4.10;;;;;;;;;;5051561;28;20025;-77
2023/08/27 08:27:33;;;;;;;9.30;3.90;;;;;;;;;;5050804;28;20025;-76
2023/08/27 08:30:00;;;;;;;9.50;3.53;;;;;;;;;;5050501;28;20040;-76
2023/08/27 08:32:26;;;;;;;11.80;3.78;;;;;;;;;;5051785;28;20115;-78
2023/08/27 08:34:54;;;;;;;7.75;3.25;;;;;;;;;;5053151;28;20021;-76
2023/08/27 08:37:20;;;;;;;8.95;3.72;;;;;;;;;;5051775;28;20013;-78
2023/08/27 08:39:46;;;;;;;9.13;4.00;;;;;;;;;;5052096;28;20415;-78
2023/08/27 08:42:32;;;;;;;10.40;3.60;;;;;;;;;;5052596;28;20021;-76
2023/08/27 08:45:17;;;;;;;13.70;3.85;;;;;;;;;;5053853;28;20025;-76
2023/08/27 08:47:44;;;;;;;6.80;3.13;;;;;;;;;;5052948;28;20475;-76
2023/08/27 08:50:10;;;;;;;7.45;3.65;;;;;;;;;;5052799;28;20029;-75
2023/08/27 08:52:39;;;;;;;8.93;3.15;;;;;;;;;;5049941;28;20035;-74
2023/08/27 08:55:11;;;;;;;8.65;3.58;;;;;;;;;;5050926;28;20022;-75
2023/08/27 08:57:45;;;;;;;6.07;3.30;;;;;;;;;;5050567;28;20022;-75
2023/08/27 09:00:12;;;;;;;6.55;2.85;;;;;;;;;;5052154;28;20029;-75
2023/08/27 09:02:39;;;;;;;10.05;3.75;;;;;;;;;;5051407;28;20536;-74
2023/08/27 09:05:05;;;;;;;7.55;3.25;;;;;;;;;;5050728;28;20028;-75
2023/08/27 09:07:35;;;;;;;10.32;2.53;;;;;;;;;;5050649;28;20031;-75
2023/08/27 09:10:01;;;;;;;7.00;2.80;;;;;;;;;;5051217;28;20021;-74
2023/08/27 09:12:28;;;;;;;9.98;3.50;;;;;;;;;;5051076;28;20029;-75
2023/08/27 09:14:55;;;;;;;9.73;3.10;;;;;;;;;;5050398;28;20495;-75
2023/08/27 09:17:22;;;;;;;8.25;2.92;;;;;;;;;;5050174;28;20028;-75
2023/08/27 09:19:51;;;;;;;5.95;2.50;;;;;;;;;;5049774;28;20494;-75
2023/08/27 09:22:17;;;;;;;5.47;2.83;;;;;;;;;;5049824;28;20078;-76
2023/08/27 09:24:43;;;;;;;9.10;2.58;;;;;;;;;;5050110;28;20108;-75
2023/08/27 09:27:10;;;;;;;8.68;3.25;;;;;;;;;;5050325;28;20095;-75
2023/08/27 09:29:36;;;;;;;8.77;2.92;;;;;;;;;;5053462;28;20483;-75
2023/08/27 09:32:03;;;;;;;8.35;2.60;;;;;;;;;;5052057;28;20033;-75
2023/08/27 09:34:29;;;;;;;9.25;2.72;;;;;;;;;;5052956;28;20029;-75
2023/08/27 09:36:55;;;;;;;9.93;3.17;;;;;;;;;;5053799;28;20102;-76
2023/08/27 09:39:21;;;;;;;8.35;3.58;;;;;;;;;;5052942;28;20368;-75
2023/08/27 09:41:47;;;;;;;13.52;4.18;;;;;;;;;;5056303;28;20033;-74
2023/08/27 09:44:15;;;;;;;7.97;2.75;;;;;;;;;;5056530;28;20024;-76
2023/08/27 09:46:42;;;;;;;7.65;3.22;;;;;;;;;;5057730;28;20032;-75
2023/08/27 09:49:08;;;;;;;6.93;2.80;;;;;;;;;;5056608;28;20041;-75
2023/08/27 09:51:36;;;;;;;7.93;2.75;;;;;;;;;;5059190;28;20025;-75
2023/08/27 09:54:13;;;;;;;6.72;2.83;;;;;;;;;;5056910;28;20029;-75
2023/08/27 09:56:39;;;;;;;5.22;2.80;;;;;;;;;;5056319;28;20013;-74
2023/08/27 09:59:05;;;;;;;5.72;2.33;;;;;;;;;;5056123;28;20021;-75
2023/08/27 10:01:34;;;;;;;10.82;3.53;;;;;;;;;;5057656;28;20111;-75
2023/08/27 10:04:09;;;;;;;8.68;3.05;;;;;;;;;;5056628;28;20082;-75
2023/08/27 10:06:35;;;;;;;;;;;;;;;;;;5056064;28;20043;-75
2023/08/27 10:09:01;;;;;;;12.90;3.58;;;;;;;;;;5055980;28;19996;-76
2023/08/27 10:11:27;;;;;;;8.57;3.65;;;;;;;;;;5055041;28;20294;-76
2023/08/27 10:13:53;;;;;;;6.97;2.95;;;;;;;;;;5054378;28;20418;-74
2023/08/27 10:16:19;;;;;;;9.43;3.05;;;;;;;;;;5053216;28;20029;-74
2023/08/27 10:18:46;;;;;;;6.57;2.38;;;;;;;;;;5054269;28;20665;-73
2023/08/27 10:21:12;;;;;;;5.63;2.75;;;;;;;;;;5054297;28;20111;-75
2023/08/27 10:23:39;;;;;;;7.80;2.95;;;;;;;;;;5053714;28;20036;-74
2023/08/27 10:26:05;;;;;;;11.10;2.80;;;;;;;;;;5034196;28;20030;-76
2023/08/27 10:28:33;;;;;;;9.27;2.50;;;;;;;;;;5032709;28;20052;-75
2023/08/27 10:31:00;;;;;;;5.78;2.90;;;;;;;;;;5035061;28;20028;-76
2023/08/27 10:33:27;;;;;;;11.82;3.03;;;;;;;;;;5034442;28;20101;-76
2023/08/27 10:35:54;;;;;;;6.90;3.00;;;;;;;;;;5035184;28;20014;-74
2023/08/27 10:38:22;;;;;;;7.82;2.72;;;;;;;;;;5034791;28;20025;-75
2023/08/27 10:40:48;;;;;;;7.53;2.63;;;;;;;;;;5035155;28;20022;-75
2023/08/27 10:43:18;;;;;;;5.38;2.60;;;;;;;;;;5035993;28;20014;-75
2023/08/27 10:45:44;;;;;;;13.48;2.90;;;;;;;;;;5034431;28;20018;-75
2023/08/27 10:48:19;;;;;;;9.50;2.63;;;;;;;;;;5032809;28;20022;-75
2023/08/27 10:50:49;;;;;;;6.82;3.17;;;;;;;;;;5032287;28;20029;-75
2023/08/27 10:53:16;;;;;;;6.05;3.55;;;;;;;;;;5031346;28;20022;-75
2023/08/27 10:55:48;;;;;;;10.75;3.10;;;;;;;;;;5032398;28;20077;-76
2023/08/27 10:58:24;;;;;;;9.13;3.35;;;;;;;;;;5032293;28;20471;-74
2023/08/27 11:01:03;;;;;;;10.93;2.92;;;;;;;;;;5030942;28;20021;-78
2023/08/27 11:03:49;;;;;;;11.05;4.07;;;;;;;;;;5031926;28;20092;-76
2023/08/27 11:06:15;;;;;;;7.85;3.42;;;;;;;;;;5031949;28;20105;-75
2023/08/27 11:08:41;;;;;;;19.15;4.53;;;;;;;;;;5031472;28;20369;-76
2023/08/27 11:11:13;;;;;;;6.60;3.72;;;;;;;;;;5032229;28;20080;-76
2023/08/27 11:13:44;;;;;;;9.98;4.20;;;;;;;;;;5031402;28;20063;-76
2023/08/27 11:16:14;;;;;;;11.57;3.97;;;;;;;;;;5032146;28;20056;-76
2023/08/27 11:18:45;;;;;;;9.55;4.18;;;;;;;;;;5031938;28;20384;-74
2023/08/27 11:21:26;;;;;;;9.82;3.85;;;;;;;;;;5032019;28;20020;-76
2023/08/27 11:24:11;;;;;;;10.38;4.10;;;;;;;;;;5035038;28;20036;-76
2023/08/27 11:26:37;;;;;;;;;;;;;;;;;;5035264;28;20068;-76
2023/08/27 11:29:03;;;;;;;12.10;3.30;;;;;;;;;;5036993;28;19905;-75
2023/08/27 11:31:30;;;;;;;11.35;4.13;;;;;;;;;;5035363;28;20029;-76
2023/08/27 11:33:56;;;;;;;10.48;3.50;;;;;;;;;;5034296;28;20021;-75
2023/08/27 11:36:22;;;;;;;9.50;3.45;;;;;;;;;;5035785;28;20485;-76
2023/08/27 11:38:48;;;;;;;8.75;3.10;;;;;;;;;;5036589;28;20056;-76
2023/08/27 11:41:14;;;;;;;7.88;2.90;;;;;;;;;;5038735;28;20028;-76
2023/08/27 11:43:40;;;;;;;9.23;3.33;;;;;;;;;;5032016;28;20380;-75
2023/08/27 11:46:20;;;;;;;10.30;3.35;;;;;;;;;;5032715;28;20025;-75
2023/08/27 11:48:48;;;;;;;8.90;3.13;;;;;;;;;;5035354;28;20446;-75
2023/08/27 11:51:14;;;;;;;11.60;2.80;;;;;;;;;;5037677;28;20395;-74
2023/08/27 11:53:41;;;;;;;9.15;2.40;;;;;;;;;;5036727;28;20329;-74
2023/08/27 11:56:08;;;;;;;8.02;3.10;;;;;;;;;;5035560;28;20405;-75
2023/08/27 11:58:34;;;;;;;7.97;3.00;;;;;;;;;;5036725;28;20379;-75
2023/08/27 12:01:00;;;;;;;8.80;2.25;;;;;;;;;;5036469;28;20446;-74
2023/08/27 12:03:26;;;;;;;10.45;3.15;;;;;;;;;;5030859;28;20029;-75
2023/08/27 12:05:52;;;;;;;7.97;2.30;;;;;;;;;;5031528;28;20029;-72
2023/08/27 12:08:18;;;;;;;10.73;2.78;;;;;;;;;;5032614;28;20032;-76
2023/08/27 12:10:45;;;;;;;5.32;3.50;;;;;;;;;;5031504;28;20434;-74
2023/08/27 12:13:11;;;;;;;5.45;3.58;;;;;;;;;;5031335;28;20020;-78
2023/08/27 12:15:37;;;;;;;17.38;4.10;;;;;;;;;;5033051;28;20060;-76
2023/08/27 12:18:09;;;;;;;12.10;4.63;;;;;;;;;;5033399;28;20036;-75
2023/08/27 12:20:38;;;;;;;14.32;4.88;;;;;;;;;;5032261;28;20021;-71
2023/08/27 12:23:10;;;;;;;9.60;4.85;;;;;;;;;;5032783;28;20017;-75
2023/08/27 12:25:46;;;;;;;8.30;4.57;;;;;;;;;;5032512;28;20021;-73
2023/08/27 12:28:12;;;;;;;7.60;4.55;;;;;;;;;;5031882;28;20029;-75
2023/08/27 12:30:43;;;;;;;7.80;5.00;;;;;;;;;;5020864;28;20429;-75
2023/08/27 12:33:09;;;;;;;8.13;3.90;;;;;;;;;;5028755;28;20091;-74
2023/08/27 12:35:35;;;;;;;6.97;3.53;;;;;;;;;;5038674;28;20097;-74
2023/08/27 12:38:02;;;;;;;5.55;2.67;;;;;;;;;;5039902;28;20442;-74
2023/08/27 12:40:28;;;;;;;6.93;2.90;;;;;;;;;;5012892;28;20053;-74
2023/08/27 12:42:54;;;;;;;4.93;3.00;;;;;;;;;;5032114;28;20072;-78
2023/08/27 12:45:20;;;;;;;5.00;2.63;;;;;;;;;;5035129;28;20025;-75
2023/08/27 12:47:46;;;;;;;5.20;2.50;;;;;;;;;;5032677;28;20550;-74
2023/08/27 12:50:13;;;;;;;4.78;2.35;;;;;;;;;;5031831;28;20068;-75
2023/08/27 12:52:39;;;;;;;3.50;1.95;;;;;;;;;;5031398;28;20029;-74
2023/08/27 12:55:05;;;;;;;6.78;2.60;;;;;;;;;;5031828;28;20048;-73
2023/08/27 12:57:31;;;;;;;4.55;2.33;;;;;;;;;;5019814;28;20018;-75
2023/08/27 12:59:57;;;;;;;3.67;2.25;;;;;;;;;;5026667;28;20477;-74
2023/08/27 13:02:23;;;;;;;4.20;2.15;;;;;;;;;;5024949;28;20100;-74
2023/08/27 13:04:49;;;;;;;4.50;2.28;;;;;;;;;;5030647;28;20155;-73
2023/08/27 13:07:15;;;;;;;3.33;1.90;;;;;;;;;;5022264;28;20030;-73
2023/08/27 13:09:41;;;;;;;4.38;2.10;;;;;;;;;;5023380;28;20361;-73
2023/08/27 13:12:07;;;;;;;3.17;1.90;;;;;;;;;;5030527;28;20049;-74
2023/08/27 13:14:34;;;;;;;5.15;1.80;;;;;;;;;;5031374;28;20499;-74
2023/08/27 13:17:02;;;;;;;4.63;2.65;;;;;;;;;;5035082;28;20025;-73
2023/08/27 13:19:28;;;;;;;7.05;4.13;;;;;;;;;;5036926;28;20491;-74
2023/08/27 13:21:53;;;;;;;10.10;4.68;;;;;;;;;;5037165;28;20034;-74
2023/08/27 13:24:20;;;;;;;6.80;3.15;;;;;;;;;;5039063;28;20032;-73
2023/08/27 13:26:47;;;;;;;4.90;3.20;;;;;;;;;;5036390;28;20364;-73
2023/08/27 13:29:15;;;;;;;18.05;11.57;;;;;;;;;;5038413;28;20499;-74
2023/08/27 13:31:41;;;;;;;6.90;4.18;;;;;;;;;;5053803;28;20044;-76
2023/08/27 13:34:07;;;;;;;5.50;3.55;;;;;;;;;;5042473;28;20026;-75
2023/08/27 13:36:33;;;;;;;8.00;4.63;;;;;;;;;;5035462;28;20032;-75
2023/08/27 13:38:59;;;;;;;3.38;2.20;;;;;;;;;;5035041;28;20030;-77
2023/08/27 13:41:25;;;;;;;2.30;1.70;;;;;;;;;;5035169;28;20517;-76
2023/08/27 13:43:51;;;;;;;2.47;1.60;;;;;;;;;;5034621;28;20032;-75
2023/08/27 13:46:17;;;;;;;4.18;2.13;;;;;;;;;;5032935;28;20033;-75
2023/08/27 13:48:43;;;;;;;3.20;1.70;;;;;;;;;;5034859;28;20034;-77
2023/08/27 13:51:09;;;;;;;3.45;2.22;;;;;;;;;;5036012;28;20025;-76
2023/08/27 13:53:35;;;;;;;2.55;1.40;;;;;;;;;;5035701;28;20475;-77
2023/08/27 13:56:01;;;;;;;3.30;1.80;;;;;;;;;;5035482;28;20033;-77
2023/08/27 13:58:29;;;;;;;3.30;1.90;;;;;;;;;;5035366;28;20547;-79
2023/08/27 14:00:55;;;;;;;6.20;2.38;;;;;;;;;;5034984;28;20024;-74
2023/08/27 14:03:21;;;;;;;5.40;2.28;;;;;;;;;;5034202;28;20028;-74
2023/08/27 14:05:47;;;;;;;6.82;2.92;;;;;;;;;;5034675;28;20479;-75
2023/08/27 14:08:13;;;;;;;3.85;2.72;;;;;;;;;;5036236;28;20040;-75
2023/08/27 14:10:39;;;;;;;5.25;2.50;;;;;;;;;;5035127;28;20026;-75
2023/08/27 14:13:06;;;;;;;4.55;2.03;;;;;;;;;;5034110;28;20370;-77
2023/08/27 14:15:32;;;;;;;4.53;2.33;;;;;;;;;;5033955;28;20029;-75
2023/08/27 14:17:58;;;;;;;4.22;2.20;;;;;;;;;;5033803;28;20041;-74
2023/08/27 14:20:24;;;;;;;2.75;1.80;;;;;;;;;;5034081;28;20120;-74
2023/08/27 14:22:50;;;;;;;5.20;2.20;;;;;;;;;;5033030;28;20108;-75
2023/08/27 14:25:16;;;;;;;5.05;2.47;;;;;;;;;;5033403;28;20487;-75
2023/08/27 14:27:42;;;;;;;4.07;2.35;;;;;;;;;;5032763;28;20104;-76
2023/08/27 14:30:08;;;;;;;5.25;2.00;;;;;;;;;;5034385;28;20041;-76
2023/08/27 14:32:34;;;;;;;2.42;2.10;;;;;;;;;;5031423;28;20103;-75
2023/08/27 14:35:00;;;;;;;2.65;1.98;;;;;;;;;;5033539;28;20093;-75
2023/08/27 14:37:26;;;;;;;3.13;1.90;;;;;;;;;;5033733;28;20027;-74